createdAt,value
2022-10-06T00:00:02.138Z,0.00
2022-10-06T00:01:02.145Z,0.00
2022-10-06T00:02:02.123Z,0.00
2022-10-06T00:03:02.183Z,0.00
2022-10-06T00:04:02.110Z,0.00
2022-10-06T00:05:02.076Z,0.00
2022-10-06T00:06:02.065Z,0.00
2022-10-06T00:07:02.079Z,0.00
2022-10-06T00:08:02.053Z,0.00
2022-10-06T00:09:02.044Z,0.00
2022-10-06T00:10:02.041Z,0.00
2022-10-06T00:11:02.005Z,0.00
2022-10-06T00:12:02.021Z,0.00
2022-10-06T00:13:02.001Z,0.00
2022-10-06T00:14:01.984Z,0.00
2022-10-06T00:15:01.971Z,0.00
2022-10-06T00:16:02.029Z,0.00
2022-10-06T00:17:01.938Z,0.00
2022-10-06T00:18:01.965Z,0.00
2022-10-06T00:19:01.968Z,0.00
2022-10-06T00:20:01.957Z,0.00
2022-10-06T00:21:01.899Z,0.00
2022-10-06T00:22:01.897Z,0.00
2022-10-06T00:23:01.877Z,0.00
2022-10-06T00:24:01.899Z,0.00
2022-10-06T00:25:01.859Z,0.00
2022-10-06T00:26:01.857Z,0.00
2022-10-06T00:27:01.841Z,0.00
2022-10-06T00:28:01.876Z,0.00
2022-10-06T00:29:01.981Z,0.00
2022-10-06T00:30:01.807Z,0.00
2022-10-06T00:31:01.835Z,0.00
2022-10-06T00:32:01.795Z,0.00
2022-10-06T00:33:01.764Z,0.00
2022-10-06T00:34:01.786Z,0.00
2022-10-06T00:35:01.786Z,0.00
2022-10-06T00:36:01.756Z,0.00
2022-10-06T00:37:01.719Z,0.00
2022-10-06T00:38:01.720Z,0.00
2022-10-06T00:39:01.717Z,0.00
2022-10-06T00:40:01.710Z,0.00
2022-10-06T00:41:01.701Z,0.00
2022-10-06T00:42:01.682Z,0.00
2022-10-06T00:43:01.669Z,0.00
2022-10-06T00:44:01.677Z,0.00
2022-10-06T00:45:01.635Z,0.00
2022-10-06T00:46:01.729Z,0.00
2022-10-06T00:47:01.617Z,0.00
2022-10-06T00:48:01.617Z,0.00
2022-10-06T00:49:01.617Z,0.00
2022-10-06T00:50:01.613Z,0.00
2022-10-06T00:51:01.623Z,0.00
2022-10-06T00:52:01.599Z,0.00
2022-10-06T00:53:01.559Z,0.00
2022-10-06T00:54:01.569Z,0.00
2022-10-06T00:55:01.543Z,0.00
2022-10-06T00:56:01.531Z,0.00
2022-10-06T00:57:01.539Z,0.00
2022-10-06T00:58:01.513Z,0.00
2022-10-06T00:59:01.498Z,0.00
2022-10-06T01:00:01.502Z,0.00
2022-10-06T01:01:01.468Z,0.00
2022-10-06T01:02:01.493Z,0.00
2022-10-06T01:03:01.522Z,0.00
2022-10-06T01:04:01.454Z,0.00
2022-10-06T01:05:01.422Z,0.00
2022-10-06T01:06:01.416Z,0.00
2022-10-06T01:07:01.425Z,0.00
2022-10-06T01:08:01.444Z,0.00
2022-10-06T01:09:01.422Z,0.00
2022-10-06T01:10:01.401Z,0.00
2022-10-06T01:11:01.363Z,0.00
2022-10-06T01:12:01.367Z,0.00
2022-10-06T01:13:01.361Z,0.00
2022-10-06T01:14:01.350Z,0.00
2022-10-06T01:15:01.330Z,0.00
2022-10-06T01:16:01.375Z,0.00
2022-10-06T01:17:01.310Z,0.00
2022-10-06T01:18:01.308Z,0.00
2022-10-06T01:19:01.308Z,0.00
2022-10-06T01:20:01.295Z,0.00
2022-10-06T01:21:01.277Z,0.00
2022-10-06T01:22:01.246Z,0.00
2022-10-06T01:23:01.248Z,0.00
2022-10-06T01:24:01.264Z,0.00
2022-10-06T01:25:01.225Z,0.00
2022-10-06T01:26:01.227Z,0.00
2022-10-06T01:27:01.239Z,0.00
2022-10-06T01:28:01.243Z,0.00
2022-10-06T01:29:01.169Z,0.00
2022-10-06T01:30:01.172Z,0.00
2022-10-06T01:31:01.229Z,0.00
2022-10-06T01:32:01.147Z,0.00
2022-10-06T01:33:01.164Z,0.00
2022-10-06T01:34:01.136Z,0.00
2022-10-06T01:35:01.117Z,0.00
2022-10-06T01:36:01.117Z,0.00
2022-10-06T01:37:01.096Z,0.00
2022-10-06T01:38:01.076Z,0.00
2022-10-06T01:39:01.097Z,0.00
2022-10-06T01:40:01.057Z,0.00
2022-10-06T01:41:01.050Z,0.00
2022-10-06T01:42:01.044Z,0.00
2022-10-06T01:43:01.029Z,0.00
2022-10-06T01:44:01.042Z,0.00
2022-10-06T01:45:00.999Z,0.00
2022-10-06T01:46:01.060Z,0.00
2022-10-06T01:47:00.995Z,0.00
2022-10-06T01:48:00.986Z,0.00
2022-10-06T01:49:00.980Z,0.00
2022-10-06T01:50:00.955Z,0.00
2022-10-06T01:51:00.941Z,0.00
2022-10-06T01:52:00.940Z,0.00
2022-10-06T01:53:00.907Z,0.00
2022-10-06T01:54:00.966Z,0.00
2022-10-06T01:55:00.898Z,0.00
2022-10-06T01:56:00.894Z,0.00
2022-10-06T01:57:00.883Z,0.00
2022-10-06T01:58:00.868Z,0.00
2022-10-06T01:59:00.856Z,0.00
2022-10-06T02:00:00.876Z,0.00
2022-10-06T02:01:00.831Z,0.00
2022-10-06T02:02:00.871Z,0.00
2022-10-06T02:03:00.815Z,0.00
2022-10-06T02:04:00.851Z,0.00
2022-10-06T02:05:00.802Z,0.00
2022-10-06T02:06:00.838Z,0.00
2022-10-06T02:07:00.766Z,0.00
2022-10-06T02:08:00.772Z,0.00
2022-10-06T02:09:00.751Z,0.00
2022-10-06T02:10:00.758Z,0.00
2022-10-06T02:11:00.729Z,0.00
2022-10-06T02:12:00.724Z,0.00
2022-10-06T02:13:00.689Z,0.00
2022-10-06T02:14:00.695Z,0.00
2022-10-06T02:15:00.711Z,0.00
2022-10-06T02:16:00.780Z,0.00
2022-10-06T02:17:00.684Z,0.00
2022-10-06T02:18:00.661Z,0.00
2022-10-06T02:19:00.638Z,0.00
2022-10-06T02:20:00.639Z,0.00
2022-10-06T02:21:00.609Z,0.00
2022-10-06T02:22:00.623Z,0.00
2022-10-06T02:23:00.603Z,0.00
2022-10-06T02:24:00.583Z,0.00
2022-10-06T02:25:00.574Z,0.00
2022-10-06T02:26:00.568Z,0.00
2022-10-06T02:27:00.581Z,0.00
2022-10-06T02:28:00.628Z,0.00
2022-10-06T02:29:00.523Z,0.00
2022-10-06T02:30:00.526Z,0.00
2022-10-06T02:31:00.548Z,0.00
2022-10-06T02:32:00.508Z,0.00
2022-10-06T02:33:00.506Z,0.00
2022-10-06T02:34:00.486Z,0.00
2022-10-06T02:35:00.510Z,0.00
2022-10-06T02:36:00.463Z,0.00
2022-10-06T02:37:00.461Z,0.00
2022-10-06T02:38:00.458Z,0.00
2022-10-06T02:39:00.429Z,0.00
2022-10-06T02:40:00.454Z,0.00
2022-10-06T02:41:00.403Z,0.00
2022-10-06T02:42:00.394Z,0.00
2022-10-06T02:43:00.399Z,0.00
2022-10-06T02:44:00.379Z,0.00
2022-10-06T02:45:00.353Z,0.00
2022-10-06T02:46:00.357Z,0.00
2022-10-06T02:47:00.338Z,0.00
2022-10-06T02:48:00.346Z,0.00
2022-10-06T02:49:00.314Z,0.00
2022-10-06T02:50:00.322Z,0.00
2022-10-06T02:51:00.294Z,0.00
2022-10-06T02:52:00.298Z,0.00
2022-10-06T02:53:00.294Z,0.00
2022-10-06T02:54:00.265Z,0.00
2022-10-06T02:55:00.267Z,0.00
2022-10-06T02:56:00.253Z,0.00
2022-10-06T02:57:00.229Z,0.00
2022-10-06T02:58:00.225Z,0.00
2022-10-06T02:59:00.212Z,0.00
2022-10-06T03:00:00.216Z,0.00
2022-10-06T03:01:00.195Z,0.00
2022-10-06T03:02:00.353Z,0.00
2022-10-06T03:03:00.216Z,0.00
2022-10-06T03:04:00.151Z,0.00
2022-10-06T03:05:00.158Z,0.00
2022-10-06T03:06:00.148Z,0.00
2022-10-06T03:07:00.117Z,0.00
2022-10-06T03:08:00.112Z,0.00
2022-10-06T03:09:00.108Z,0.00
2022-10-06T03:10:00.145Z,0.00
2022-10-06T03:11:00.130Z,0.00
2022-10-06T03:12:00.151Z,0.00
2022-10-06T03:13:00.038Z,0.00
2022-10-06T03:14:00.046Z,0.00
2022-10-06T03:15:00.032Z,0.00
2022-10-06T03:16:00.101Z,0.00
2022-10-06T03:17:00.005Z,0.00
2022-10-06T03:18:00.013Z,0.00
2022-10-06T03:18:59.985Z,0.00
2022-10-06T03:19:59.984Z,0.00
2022-10-06T03:20:59.979Z,0.00
2022-10-06T03:21:59.959Z,0.00
2022-10-06T03:22:59.948Z,0.00
2022-10-06T03:23:59.947Z,0.00
2022-10-06T03:24:59.928Z,0.00
2022-10-06T03:25:59.964Z,0.00
2022-10-06T03:26:59.897Z,0.00
2022-10-06T03:27:59.940Z,0.00
2022-10-06T03:28:59.876Z,0.00
2022-10-06T03:29:59.903Z,0.00
2022-10-06T03:30:59.887Z,0.00
2022-10-06T03:31:59.866Z,0.00
2022-10-06T03:32:59.835Z,0.00
2022-10-06T03:33:59.839Z,0.00
2022-10-06T03:34:59.830Z,0.00
2022-10-06T03:35:59.820Z,0.00
2022-10-06T03:36:59.798Z,0.00
2022-10-06T03:37:59.792Z,0.00
2022-10-06T03:38:59.774Z,0.00
2022-10-06T03:39:59.771Z,0.00
2022-10-06T03:40:59.747Z,0.00
2022-10-06T03:41:59.764Z,0.00
2022-10-06T03:42:59.732Z,0.00
2022-10-06T03:43:59.742Z,0.00
2022-10-06T03:44:59.709Z,0.00
2022-10-06T03:45:59.709Z,0.00
2022-10-06T03:46:59.788Z,0.00
2022-10-06T03:47:59.676Z,0.00
2022-10-06T03:48:59.665Z,0.00
2022-10-06T03:49:59.667Z,0.00
2022-10-06T03:50:59.641Z,0.00
2022-10-06T03:51:59.651Z,0.00
2022-10-06T03:52:59.625Z,0.00
2022-10-06T03:53:59.602Z,0.00
2022-10-06T03:54:59.594Z,0.00
2022-10-06T03:55:59.598Z,0.00
2022-10-06T03:56:59.598Z,0.00
2022-10-06T03:57:59.565Z,0.00
2022-10-06T03:58:59.550Z,0.00
2022-10-06T03:59:59.581Z,0.00
2022-10-06T04:00:59.557Z,0.00
2022-10-06T04:01:59.549Z,0.00
2022-10-06T04:02:59.531Z,0.00
2022-10-06T04:03:59.581Z,0.00
2022-10-06T04:04:59.488Z,0.00
2022-10-06T04:05:59.486Z,0.00
2022-10-06T04:06:59.491Z,0.00
2022-10-06T04:07:59.494Z,0.00
2022-10-06T04:08:59.490Z,0.00
2022-10-06T04:09:59.438Z,0.00
2022-10-06T04:10:59.435Z,0.00
2022-10-06T04:11:59.422Z,0.00
2022-10-06T04:12:59.481Z,0.00
2022-10-06T04:13:59.410Z,0.00
2022-10-06T04:15:00.299Z,0.00
2022-10-06T04:15:59.392Z,0.00
2022-10-06T04:16:59.377Z,0.00
2022-10-06T04:17:59.347Z,0.00
2022-10-06T04:18:59.370Z,0.00
2022-10-06T04:19:59.338Z,0.00
2022-10-06T04:20:59.346Z,0.00
2022-10-06T04:21:59.312Z,0.00
2022-10-06T04:22:59.315Z,0.00
2022-10-06T04:23:59.328Z,0.00
2022-10-06T04:24:59.295Z,0.00
2022-10-06T04:25:59.265Z,0.00
2022-10-06T04:27:00.018Z,0.00
2022-10-06T04:27:59.275Z,0.00
2022-10-06T04:28:59.235Z,0.00
2022-10-06T04:29:59.240Z,0.00
2022-10-06T04:30:59.221Z,0.00
2022-10-06T04:31:59.254Z,0.00
2022-10-06T04:32:59.203Z,0.00
2022-10-06T04:33:59.186Z,0.00
2022-10-06T04:34:59.190Z,0.00
2022-10-06T04:35:59.175Z,0.00
2022-10-06T04:36:59.155Z,0.00
2022-10-06T04:37:59.128Z,0.00
2022-10-06T04:38:59.133Z,0.00
2022-10-06T04:39:59.112Z,0.00
2022-10-06T04:40:59.157Z,0.00
2022-10-06T04:41:59.089Z,0.00
2022-10-06T04:42:59.083Z,0.00
2022-10-06T04:43:59.079Z,0.00
2022-10-06T04:44:59.057Z,0.00
2022-10-06T04:45:59.142Z,0.00
2022-10-06T04:46:59.124Z,0.00
2022-10-06T04:47:59.069Z,0.00
2022-10-06T04:48:59.046Z,0.00
2022-10-06T04:49:59.011Z,0.00
2022-10-06T04:50:59.000Z,0.00
2022-10-06T04:51:58.999Z,0.00
2022-10-06T04:52:59.088Z,0.00
2022-10-06T04:53:58.969Z,0.00
2022-10-06T04:54:58.960Z,0.00
2022-10-06T04:55:58.945Z,0.00
2022-10-06T04:56:58.988Z,0.00
2022-10-06T04:57:58.943Z,0.00
2022-10-06T04:58:58.912Z,0.00
2022-10-06T05:00:05.010Z,0.00
2022-10-06T05:00:58.981Z,0.00
2022-10-06T05:01:58.930Z,0.00
2022-10-06T05:02:58.937Z,0.00
2022-10-06T05:03:58.852Z,0.00
2022-10-06T05:04:58.856Z,0.00
2022-10-06T05:05:58.847Z,0.00
2022-10-06T05:06:58.831Z,0.00
2022-10-06T05:07:58.836Z,0.00
2022-10-06T05:08:58.954Z,1.00
2022-10-06T05:09:58.922Z,0.00
2022-10-06T05:10:58.835Z,0.00
2022-10-06T05:11:58.813Z,0.00
2022-10-06T05:12:58.813Z,0.00
2022-10-06T05:13:58.829Z,0.00
2022-10-06T05:14:58.746Z,0.00
2022-10-06T05:15:58.774Z,1.00
2022-10-06T05:16:59.657Z,1.00
2022-10-06T05:17:58.763Z,2.00
2022-10-06T05:18:58.650Z,2.00
2022-10-06T05:19:58.712Z,2.00
2022-10-06T05:21:01.093Z,3.00
2022-10-06T05:21:58.618Z,2.00
2022-10-06T05:22:58.620Z,3.00
2022-10-06T05:23:58.606Z,6.00
2022-10-06T05:24:58.631Z,8.00
2022-10-06T05:25:58.583Z,9.00
2022-10-06T05:27:01.760Z,13.00
2022-10-06T05:27:58.573Z,16.00
2022-10-06T05:28:58.557Z,19.00
2022-10-06T05:29:58.533Z,22.00
2022-10-06T05:30:58.529Z,27.00
2022-10-06T05:31:58.537Z,30.00
2022-10-06T05:32:58.576Z,33.00
2022-10-06T05:33:58.499Z,45.00
2022-10-06T05:34:58.489Z,45.00
2022-10-06T05:35:58.461Z,53.00
2022-10-06T05:36:58.474Z,62.00
2022-10-06T05:37:58.434Z,67.00
2022-10-06T05:38:58.439Z,75.00
2022-10-06T05:39:58.438Z,82.00
2022-10-06T05:40:58.419Z,95.00
2022-10-06T05:41:58.407Z,102.00
2022-10-06T05:42:58.391Z,113.00
2022-10-06T05:43:58.396Z,123.00
2022-10-06T05:44:58.401Z,132.00
2022-10-06T05:45:58.413Z,145.00
2022-10-06T05:46:58.471Z,159.00
2022-10-06T05:47:58.330Z,174.00
2022-10-06T05:48:58.340Z,183.00
2022-10-06T05:49:58.328Z,202.00
2022-10-06T05:50:58.309Z,218.00
2022-10-06T05:51:58.298Z,234.00
2022-10-06T05:52:58.300Z,252.00
2022-10-06T05:53:58.333Z,267.00
2022-10-06T05:54:58.266Z,284.00
2022-10-06T05:55:58.248Z,294.00
2022-10-06T05:56:58.246Z,316.00
2022-10-06T05:57:58.273Z,334.00
2022-10-06T05:58:58.295Z,340.00
2022-10-06T05:59:58.209Z,369.00
2022-10-06T06:00:58.220Z,386.00
2022-10-06T06:01:58.225Z,405.00
2022-10-06T06:02:58.249Z,421.00
2022-10-06T06:03:58.167Z,435.00
2022-10-06T06:04:58.159Z,457.00
2022-10-06T06:05:58.144Z,470.00
2022-10-06T06:06:58.172Z,485.00
2022-10-06T06:07:58.128Z,502.00
2022-10-06T06:08:58.125Z,522.00
2022-10-06T06:09:58.122Z,536.00
2022-10-06T06:10:58.136Z,554.00
2022-10-06T06:11:58.079Z,569.00
2022-10-06T06:12:58.097Z,586.00
2022-10-06T06:13:58.070Z,600.00
2022-10-06T06:14:58.109Z,615.00
2022-10-06T06:15:58.095Z,633.00
2022-10-06T06:16:58.145Z,652.00
2022-10-06T06:17:58.035Z,667.00
2022-10-06T06:18:57.997Z,678.00
2022-10-06T06:19:57.990Z,685.00
2022-10-06T06:20:58.004Z,686.00
2022-10-06T06:21:57.977Z,688.00
2022-10-06T06:22:58.003Z,709.00
2022-10-06T06:23:57.961Z,725.00
2022-10-06T06:24:57.946Z,751.00
2022-10-06T06:26:02.062Z,767.00
2022-10-06T06:26:57.947Z,784.00
2022-10-06T06:27:58.037Z,804.00
2022-10-06T06:28:57.898Z,818.00
2022-10-06T06:29:57.877Z,834.00
2022-10-06T06:30:57.934Z,827.00
2022-10-06T06:31:57.858Z,844.00
2022-10-06T06:32:57.998Z,858.00
2022-10-06T06:33:57.925Z,879.00
2022-10-06T06:34:57.879Z,887.00
2022-10-06T06:35:57.838Z,890.00
2022-10-06T06:37:01.197Z,901.00
2022-10-06T06:37:57.800Z,923.00
2022-10-06T06:38:57.876Z,926.00
2022-10-06T06:39:57.880Z,952.00
2022-10-06T06:40:57.777Z,953.00
2022-10-06T06:41:57.768Z,976.00
2022-10-06T06:42:57.764Z,982.00
2022-10-06T06:43:57.738Z,994.00
2022-10-06T06:44:57.764Z,1009.00
2022-10-06T06:45:57.760Z,1024.00
2022-10-06T06:46:57.715Z,1034.00
2022-10-06T06:47:57.696Z,1054.00
2022-10-06T06:48:57.698Z,1087.00
2022-10-06T06:49:57.692Z,1078.00
2022-10-06T06:50:57.670Z,1188.00
2022-10-06T06:51:57.644Z,1162.00
2022-10-06T06:52:57.685Z,1207.00
2022-10-06T06:53:57.623Z,1219.00
2022-10-06T06:54:57.653Z,1234.00
2022-10-06T06:55:57.605Z,1259.00
2022-10-06T06:56:57.642Z,1300.00
2022-10-06T06:57:57.598Z,1326.00
2022-10-06T06:58:57.580Z,1367.00
2022-10-06T06:59:57.558Z,1347.00
2022-10-06T07:00:57.604Z,1413.00
2022-10-06T07:01:57.664Z,1413.00
2022-10-06T07:02:57.557Z,1422.00
2022-10-06T07:03:58.828Z,1427.00
2022-10-06T07:04:57.517Z,1477.00
2022-10-06T07:05:57.504Z,1487.00
2022-10-06T07:06:57.521Z,1491.00
2022-10-06T07:07:57.469Z,1509.00
2022-10-06T07:08:57.475Z,1525.00
2022-10-06T07:09:57.463Z,1554.00
2022-10-06T07:10:57.458Z,1567.00
2022-10-06T07:11:57.478Z,1586.00
2022-10-06T07:12:57.455Z,1552.00
2022-10-06T07:13:57.422Z,1596.00
2022-10-06T07:14:57.427Z,1605.00
2022-10-06T07:15:57.435Z,1632.00
2022-10-06T07:16:57.544Z,1635.00
2022-10-06T07:17:57.376Z,1654.00
2022-10-06T07:18:57.446Z,1631.00
2022-10-06T07:19:57.366Z,1683.00
2022-10-06T07:20:57.334Z,1685.00
2022-10-06T07:21:57.329Z,1697.00
2022-10-06T07:22:57.356Z,1677.00
2022-10-06T07:23:57.318Z,1722.00
2022-10-06T07:24:57.315Z,1723.00
2022-10-06T07:25:57.322Z,1731.00
2022-10-06T07:26:57.311Z,1726.00
2022-10-06T07:27:57.306Z,1752.00
2022-10-06T07:28:57.270Z,1755.00
2022-10-06T07:29:57.475Z,1762.00
2022-10-06T07:30:57.305Z,1763.00
2022-10-06T07:31:57.223Z,1800.00
2022-10-06T07:32:57.241Z,1813.00
2022-10-06T07:33:57.231Z,1807.00
2022-10-06T07:34:57.360Z,1823.00
2022-10-06T07:35:57.206Z,1835.00
2022-10-06T07:36:57.178Z,1846.00
2022-10-06T07:37:57.154Z,1872.00
2022-10-06T07:38:57.176Z,1883.00
2022-10-06T07:39:57.156Z,1890.00
2022-10-06T07:41:57.159Z,1911.00
2022-10-06T07:42:57.131Z,1924.00
2022-10-06T07:43:57.098Z,1906.00
2022-10-06T07:44:57.087Z,1910.00
2022-10-06T07:45:57.117Z,1940.00
2022-10-06T07:46:57.079Z,1965.00
2022-10-06T07:47:57.051Z,1954.00
2022-10-06T07:48:57.078Z,1964.00
2022-10-06T07:49:57.044Z,1982.00
2022-10-06T07:50:57.046Z,2006.00
2022-10-06T07:51:57.008Z,1996.00
2022-10-06T07:52:57.063Z,1997.00
2022-10-06T07:53:56.977Z,2020.00
2022-10-06T07:54:57.098Z,1988.00
2022-10-06T07:55:56.976Z,2028.00
2022-10-06T07:56:56.959Z,2056.00
2022-10-06T07:57:56.950Z,2070.00
2022-10-06T07:58:56.933Z,2084.00
2022-10-06T08:00:01.948Z,2090.00
2022-10-06T08:00:57.003Z,2085.00
2022-10-06T08:01:57.027Z,2145.00
2022-10-06T08:02:57.103Z,2135.00
2022-10-06T08:03:56.892Z,2097.00
2022-10-06T08:04:57.021Z,2115.00
2022-10-06T08:05:56.855Z,2162.00
2022-10-06T08:06:56.860Z,2208.00
2022-10-06T08:07:56.846Z,2173.00
2022-10-06T08:08:56.893Z,2191.00
2022-10-06T08:09:56.824Z,2161.00
2022-10-06T08:10:56.850Z,2170.00
2022-10-06T08:11:56.813Z,2201.00
2022-10-06T08:12:56.777Z,2185.00
2022-10-06T08:13:56.775Z,2210.00
2022-10-06T08:14:57.121Z,2225.00
2022-10-06T08:15:56.820Z,2205.00
2022-10-06T08:16:56.761Z,2213.00
2022-10-06T08:17:56.725Z,2228.00
2022-10-06T08:18:56.729Z,2231.00
2022-10-06T08:19:56.697Z,2235.00
2022-10-06T08:20:56.737Z,2270.00
2022-10-06T08:21:59.869Z,2272.00
2022-10-06T08:22:56.685Z,2284.00
2022-10-06T08:23:56.668Z,2325.00
2022-10-06T08:25:05.826Z,2306.00
2022-10-06T08:25:56.639Z,2256.00
2022-10-06T08:26:56.646Z,2284.00
2022-10-06T08:27:56.732Z,2341.00
2022-10-06T08:28:56.612Z,2337.00
2022-10-06T08:29:56.603Z,2291.00
2022-10-06T08:30:56.609Z,2404.00
2022-10-06T08:31:56.618Z,2436.00
2022-10-06T08:32:56.575Z,2337.00
2022-10-06T08:33:56.571Z,2322.00
2022-10-06T08:34:57.319Z,2409.00
2022-10-06T08:35:56.550Z,2333.00
2022-10-06T08:37:18.607Z,2333.00
2022-10-06T08:37:56.553Z,2415.00
2022-10-06T08:38:56.491Z,2426.00
2022-10-06T08:39:56.489Z,2416.00
2022-10-06T08:40:56.825Z,2470.00
2022-10-06T08:41:56.486Z,2815.00
2022-10-06T08:42:56.504Z,1934.00
2022-10-06T08:43:56.445Z,2460.00
2022-10-06T08:44:56.887Z,2391.00
2022-10-06T08:45:56.417Z,2687.00
2022-10-06T08:46:56.409Z,2812.00
2022-10-06T08:47:56.399Z,2471.00
2022-10-06T08:48:56.416Z,2587.00
2022-10-06T08:49:56.825Z,2512.00
2022-10-06T08:50:56.374Z,2663.00
2022-10-06T08:51:56.360Z,2624.00
2022-10-06T08:52:56.339Z,2677.00
2022-10-06T08:53:56.363Z,2538.00
2022-10-06T08:54:56.316Z,2566.00
2022-10-06T08:55:56.319Z,2579.00
2022-10-06T08:56:56.307Z,2662.00
2022-10-06T08:57:56.316Z,2632.00
2022-10-06T08:58:56.342Z,2635.00
2022-10-06T08:59:56.580Z,2678.00
2022-10-06T09:00:56.299Z,2646.00
2022-10-06T09:01:56.340Z,2698.00
2022-10-06T09:02:56.276Z,2678.00
2022-10-06T09:03:56.281Z,2518.00
2022-10-06T09:04:56.251Z,2820.00
2022-10-06T09:05:56.215Z,3373.00
2022-10-06T09:06:56.203Z,3129.00
2022-10-06T09:07:56.211Z,3035.00
2022-10-06T09:08:56.205Z,3019.00
2022-10-06T09:09:56.492Z,2925.00
2022-10-06T09:10:56.153Z,2850.00
2022-10-06T09:11:56.153Z,2990.00
2022-10-06T09:12:56.142Z,2801.00
2022-10-06T09:13:56.157Z,2879.00
2022-10-06T09:14:56.141Z,2820.00
2022-10-06T09:15:56.142Z,2944.00
2022-10-06T09:16:56.088Z,3283.00
2022-10-06T09:17:56.224Z,3735.00
2022-10-06T09:19:08.230Z,722.00
2022-10-06T09:19:56.376Z,2378.00
2022-10-06T09:20:56.094Z,2845.00
2022-10-06T09:21:56.052Z,2895.00
2022-10-06T09:22:56.092Z,2839.00
2022-10-06T09:23:56.028Z,2922.00
2022-10-06T09:24:56.018Z,2903.00
2022-10-06T09:25:56.018Z,2909.00
2022-10-06T09:26:56.001Z,2896.00
2022-10-06T09:27:56.107Z,2972.00
2022-10-06T09:28:55.957Z,3001.00
2022-10-06T09:29:56.282Z,3016.00
2022-10-06T09:30:56.009Z,3022.00
2022-10-06T09:31:55.953Z,3117.00
2022-10-06T09:32:55.912Z,2489.00
2022-10-06T09:33:55.906Z,4132.00
2022-10-06T09:34:55.930Z,5951.00
2022-10-06T09:35:55.900Z,3641.00
2022-10-06T09:37:00.902Z,3312.00
2022-10-06T09:37:55.904Z,3527.00
2022-10-06T09:38:55.863Z,3343.00
2022-10-06T09:39:56.221Z,3139.00
2022-10-06T09:40:56.126Z,2692.00
2022-10-06T09:41:55.826Z,1721.00
2022-10-06T09:42:55.808Z,7754.00
2022-10-06T09:43:55.804Z,5982.00
2022-10-06T09:44:55.783Z,8032.00
2022-10-06T09:45:55.851Z,5346.00
2022-10-06T09:46:55.773Z,3193.00
2022-10-06T09:47:55.760Z,3001.00
2022-10-06T09:48:55.760Z,13606.00
2022-10-06T09:49:55.924Z,9398.00
2022-10-06T09:50:56.073Z,1196.00
2022-10-06T09:51:55.724Z,7775.00
2022-10-06T09:52:55.700Z,6650.00
2022-10-06T09:53:55.731Z,10328.00
2022-10-06T09:54:55.711Z,8004.00
2022-10-06T09:55:55.705Z,4618.00
2022-10-06T09:56:55.674Z,7717.00
2022-10-06T09:57:55.657Z,10233.00
2022-10-06T09:58:55.748Z,2297.00
2022-10-06T09:59:55.895Z,3896.00
2022-10-06T10:00:55.671Z,1081.00
2022-10-06T10:01:55.701Z,8794.00
2022-10-06T10:02:55.645Z,1479.00
2022-10-06T10:04:15.940Z,3342.00
2022-10-06T10:04:55.949Z,18178.00
2022-10-06T10:05:55.685Z,16877.00
2022-10-06T10:06:55.584Z,20142.00
2022-10-06T10:07:55.565Z,17513.00
2022-10-06T10:08:55.651Z,5221.00
2022-10-06T10:09:55.778Z,2160.00
2022-10-06T10:10:55.557Z,2475.00
2022-10-06T10:11:55.523Z,23415.00
2022-10-06T10:12:55.509Z,25803.00
2022-10-06T10:13:55.482Z,34321.00
2022-10-06T10:14:55.521Z,21754.00
2022-10-06T10:15:55.497Z,29386.00
2022-10-06T10:16:55.435Z,31450.00
2022-10-06T10:17:55.453Z,17646.00
2022-10-06T10:18:55.460Z,34949.00
2022-10-06T10:19:55.871Z,25667.00
2022-10-06T10:20:55.404Z,5313.00
2022-10-06T10:21:55.394Z,2396.00
2022-10-06T10:22:55.408Z,26018.00
2022-10-06T10:23:55.380Z,24609.00
2022-10-06T10:24:55.354Z,33663.00
2022-10-06T10:25:55.361Z,17292.00
2022-10-06T10:26:55.342Z,5798.00
2022-10-06T10:27:55.621Z,4227.00
2022-10-06T10:28:55.319Z,1692.00
2022-10-06T10:29:55.665Z,11442.00
2022-10-06T10:30:55.349Z,28896.00
2022-10-06T10:31:55.457Z,26881.00
2022-10-06T10:32:55.334Z,38471.00
2022-10-06T10:34:12.126Z,30293.00
2022-10-06T10:34:55.631Z,2800.00
2022-10-06T10:35:55.263Z,26180.00
2022-10-06T10:36:56.222Z,34271.00
2022-10-06T10:37:55.241Z,19760.00
2022-10-06T10:38:55.234Z,71840.00
2022-10-06T10:39:55.205Z,71967.00
2022-10-06T10:40:55.187Z,56436.00
2022-10-06T10:41:55.193Z,7531.00
2022-10-06T10:42:55.211Z,70168.00
2022-10-06T10:43:55.179Z,57509.00
2022-10-06T10:44:55.528Z,4201.00
2022-10-06T10:45:55.144Z,70748.00
2022-10-06T10:46:55.200Z,71107.00
2022-10-06T10:47:55.119Z,62352.00
2022-10-06T10:48:55.106Z,21799.00
2022-10-06T10:49:55.115Z,5709.00
2022-10-06T10:50:55.097Z,72104.00
2022-10-06T10:51:55.109Z,72380.00
2022-10-06T10:52:55.183Z,72742.00
2022-10-06T10:53:55.060Z,74032.00
2022-10-06T10:54:55.282Z,73836.00
2022-10-06T10:55:55.137Z,73289.00
2022-10-06T10:56:55.150Z,73132.00
2022-10-06T10:57:55.014Z,72468.00
2022-10-06T10:58:55.001Z,72114.00
2022-10-06T10:59:54.995Z,72067.00
2022-10-06T11:00:55.052Z,72421.00
2022-10-06T11:01:55.023Z,73232.00
2022-10-06T11:02:55.016Z,74002.00
2022-10-06T11:03:54.947Z,73527.00
2022-10-06T11:04:56.105Z,72445.00
2022-10-06T11:05:54.959Z,72725.00
2022-10-06T11:06:54.925Z,73318.00
2022-10-06T11:07:54.904Z,73157.00
2022-10-06T11:08:54.963Z,73102.00
2022-10-06T11:09:54.893Z,73114.00
2022-10-06T11:10:54.902Z,72544.00
2022-10-06T11:11:54.860Z,72426.00
2022-10-06T11:12:54.860Z,74173.00
2022-10-06T11:13:54.852Z,12170.00
2022-10-06T11:14:54.871Z,62873.00
2022-10-06T11:15:54.871Z,8988.00
2022-10-06T11:16:54.874Z,64337.00
2022-10-06T11:17:54.838Z,18077.00
2022-10-06T11:18:54.796Z,26972.00
2022-10-06T11:19:54.849Z,20978.00
2022-10-06T11:20:55.751Z,15349.00
2022-10-06T11:21:54.775Z,2491.00
2022-10-06T11:22:54.746Z,13744.00
2022-10-06T11:23:55.078Z,16407.00
2022-10-06T11:24:54.768Z,3220.00
2022-10-06T11:25:54.777Z,20022.00
2022-10-06T11:26:54.789Z,22743.00
2022-10-06T11:27:54.737Z,6218.00
2022-10-06T11:28:54.703Z,29899.00
2022-10-06T11:29:54.702Z,28374.00
2022-10-06T11:30:54.688Z,19119.00
2022-10-06T11:31:54.795Z,65357.00
2022-10-06T11:32:54.650Z,25263.00
2022-10-06T11:33:54.655Z,4398.00
2022-10-06T11:34:55.619Z,11899.00
2022-10-06T11:35:54.856Z,2234.00
2022-10-06T11:36:54.647Z,13599.00
2022-10-06T11:37:54.614Z,10944.00
2022-10-06T11:38:54.614Z,12693.00
2022-10-06T11:39:54.586Z,14393.00
2022-10-06T11:40:54.569Z,13304.00
2022-10-06T11:41:59.638Z,3404.00
2022-10-06T11:42:54.541Z,8798.00
2022-10-06T11:43:56.037Z,19900.00
2022-10-06T11:44:58.238Z,14596.00
2022-10-06T11:45:54.592Z,2398.00
2022-10-06T11:46:54.663Z,16077.00
2022-10-06T11:47:54.526Z,5063.00
2022-10-06T11:48:54.651Z,4445.00
2022-10-06T11:49:54.498Z,4090.00
2022-10-06T11:50:54.500Z,3061.00
2022-10-06T11:51:58.360Z,3310.00
2022-10-06T11:52:54.578Z,8425.00
2022-10-06T11:53:54.453Z,27563.00
2022-10-06T11:54:54.425Z,15287.00
2022-10-06T11:55:54.415Z,10726.00
2022-10-06T11:56:54.404Z,16631.00
2022-10-06T11:57:54.600Z,13447.00
2022-10-06T11:58:54.549Z,74637.00
2022-10-06T11:59:54.381Z,62271.00
2022-10-06T12:00:54.394Z,4667.00
2022-10-06T12:01:55.434Z,31707.00
2022-10-06T12:02:54.503Z,28742.00
2022-10-06T12:03:54.340Z,13704.00
2022-10-06T12:04:54.393Z,14603.00
2022-10-06T12:05:56.770Z,6410.00
2022-10-06T12:06:54.329Z,4130.00
2022-10-06T12:07:54.289Z,11309.00
2022-10-06T12:08:54.379Z,6489.00
2022-10-06T12:09:54.276Z,6617.00
2022-10-06T12:10:54.339Z,5954.00
2022-10-06T12:11:54.333Z,4218.00
2022-10-06T12:13:21.190Z,3485.00
2022-10-06T12:15:26.856Z,18633.00
2022-10-06T12:17:19.293Z,11064.00
2022-10-06T12:18:14.257Z,31841.00
2022-10-06T12:19:14.234Z,18951.00
2022-10-06T12:20:14.238Z,2949.00
2022-10-06T12:21:14.209Z,6018.00
2022-10-06T12:22:14.534Z,35580.00
2022-10-06T12:23:14.176Z,29056.00
2022-10-06T12:25:14.157Z,2997.00
2022-10-06T12:26:14.169Z,5949.00
2022-10-06T12:27:14.663Z,7584.00
2022-10-06T12:28:14.830Z,80897.00
2022-10-06T12:29:14.132Z,80398.00
2022-10-06T12:30:14.121Z,77952.00
2022-10-06T12:31:18.075Z,80576.00
2022-10-06T12:32:14.192Z,81410.00
2022-10-06T12:33:14.078Z,77405.00
2022-10-06T12:34:14.145Z,60712.00
2022-10-06T12:35:14.453Z,16104.00
2022-10-06T12:36:14.049Z,5692.00
2022-10-06T12:37:15.122Z,67676.00
2022-10-06T12:38:14.063Z,17158.00